Time;durP1;ratioP1;P1;durP2;ratioP2;P2;SDS_P1;SDS_P2;PMS_P1;PMS_P2;Temp;Humidity;BMP_temperature;BMP_pressure;BME280_temperature;BME280_humidity;BME280_pressure;Samples;Min_cycle;Max_cycle;Signal;HPM_P1;HPM_P2
2023/01/04 00:00:27;;;;;;;;;;;;;;;20.06;52.15;102086.00;5021500;28;5502;-64
2023/01/04 00:02:53;;;;;;;;;;;;;;;20.05;52.06;102078.75;5021690;28;4120;-64
2023/01/04 00:05:20;;;;;;;;;;;;;;;20.06;51.97;102079.50;5022581;28;4144;-64
2023/01/04 00:07:46;;;;;;;;;;;;;;;20.05;51.99;102073.00;5022918;28;6098;-64
2023/01/04 00:10:12;;;;;;;;;;;;;;;20.06;51.95;102070.88;5018785;28;5331;-64
2023/01/04 00:12:39;;;;;;;;;;;;;;;20.05;52.05;102067.25;5021939;28;4208;-64
2023/01/04 00:15:05;;;;;;;;;;;;;;;20.05;51.71;102064.38;5017941;28;4208;-64
2023/01/04 00:17:32;;;;;;;;;;;;;;;20.03;51.92;102052.00;5021956;28;4178;-63
2023/01/04 00:19:58;;;;;;;;;;;;;;;20.02;51.98;102053.34;5022958;28;5247;-64
2023/01/04 00:22:25;;;;;;;;;;;;;;;20.03;51.93;102052.75;5019406;28;4132;-64
2023/01/04 00:25:00;;;;;;;;;;;;;;;20.01;51.92;102043.97;5023369;28;5170;-64
2023/01/04 00:27:26;;;;;;;;;;;;;;;20.00;51.98;102025.22;5019613;28;4126;-64
2023/01/04 00:29:55;;;;;;;;;;;;;;;20.00;51.98;102007.97;5021760;28;3923;-64
2023/01/04 00:32:22;;;;;;;;;;;;;;;20.02;51.90;102011.00;5021283;28;5208;-64
2023/01/04 00:34:51;;;;;;;;;;;;;;;20.04;51.99;102008.25;5018746;28;4112;-64
2023/01/04 00:37:18;;;;;;;;;;;;;;;20.08;52.28;102002.75;5023405;28;5259;-64
2023/01/04 00:39:44;;;;;;;;;;;;;;;20.09;52.52;102007.13;5021589;28;4190;-63
2023/01/04 00:42:11;;;;;;;;;;;;;;;20.11;52.60;102011.50;5022504;28;4906;-64
2023/01/04 00:44:37;;;;;;;;;;;;;;;20.14;52.44;102010.28;5022337;28;4044;-64
2023/01/04 00:47:04;;;;;;;;;;;;;;;20.14;52.43;102010.28;5019361;28;5409;-63
2023/01/04 00:49:30;;;;;;;;;;;;;;;20.13;52.65;102003.75;5021502;28;5557;-64
2023/01/04 00:51:56;;;;;;;;;;;;;;;20.09;52.50;101989.88;5022061;28;4921;-64
2023/01/04 00:54:23;;;;;;;;;;;;;;;20.12;53.07;101984.28;5026286;28;5447;-64
2023/01/04 00:56:49;;;;;;;;;;;;;;;20.11;52.64;101977.75;5022675;28;4150;-64
2023/01/04 00:59:16;;;;;;;;;;;;;;;20.11;52.82;101977.00;5023216;28;4156;-63
2023/01/04 01:01:42;;;;;;;;;;;;;;;20.11;52.58;101977.75;5022469;28;5313;-64
2023/01/04 01:04:11;;;;;;;;;;;;;;;20.12;52.64;101972.75;5024012;28;4193;-64
2023/01/04 01:06:38;;;;;;;;;;;;;;;20.09;52.93;101974.75;5025991;28;5195;-63
2023/01/04 01:09:04;;;;;;;;;;;;;;;20.11;52.70;101977.00;5023066;28;4256;-64
2023/01/04 01:11:30;;;;;;;;;;;;;;;20.10;52.57;101976.25;5021199;28;5218;-63
2023/01/04 01:13:57;;;;;;;;;;;;;;;20.08;52.46;101974.00;5024559;28;4239;-64
2023/01/04 01:16:23;;;;;;;;;;;;;;;20.08;52.75;101968.25;5025010;28;4121;-63
2023/01/04 01:19:10;;;;;;;;;;;;;;;20.06;52.48;101976.72;5025029;28;4356;-64
2023/01/04 01:21:36;;;;;;;;;;;;;;;20.04;52.53;101962.25;5024795;28;4137;-64
2023/01/04 01:24:03;;;;;;;;;;;;;;;20.02;52.44;101959.22;5025005;28;4147;-64
2023/01/04 01:26:29;;;;;;;;;;;;;;;20.02;52.62;101976.47;5027073;28;4007;-64
2023/01/04 01:28:56;;;;;;;;;;;;;;;20.00;52.52;101970.59;5026226;28;4059;-64
2023/01/04 01:31:23;;;;;;;;;;;;;;;20.00;52.41;101970.59;5024375;28;3966;-64
2023/01/04 01:33:49;;;;;;;;;;;;;;;19.99;52.52;101965.47;5024640;28;4048;-64
2023/01/04 01:36:22;;;;;;;;;;;;;;;19.99;52.60;101966.19;5023500;28;4138;-64
2023/01/04 01:38:55;;;;;;;;;;;;;;;19.98;52.54;101964.72;5024237;28;3913;-64
2023/01/04 01:41:22;;;;;;;;;;;;;;;19.99;52.61;101965.47;5023491;28;4092;-65
2023/01/04 01:43:53;;;;;;;;;;;;;;;19.97;52.61;101966.06;5023328;28;4209;-63
2023/01/04 01:46:23;;;;;;;;;;;;;;;19.98;52.40;101958.97;5025490;28;5570;-64
2023/01/04 01:48:50;;;;;;;;;;;;;;;19.98;52.30;101964.72;4999873;28;4124;-63
2023/01/04 01:51:17;;;;;;;;;;;;;;;20.00;52.40;101958.34;5001666;28;4442;-64
2023/01/04 01:53:44;;;;;;;;;;;;;;;19.96;52.36;101958.81;5022825;28;4099;-64
2023/01/04 01:56:10;;;;;;;;;;;;;;;19.96;52.54;101949.47;5025860;28;5350;-64
2023/01/04 01:58:38;;;;;;;;;;;;;;;19.95;52.43;101948.72;4996801;28;4355;-64
2023/01/04 02:01:05;;;;;;;;;;;;;;;19.94;52.46;101940.69;5005994;28;5289;-64
2023/01/04 02:03:41;;;;;;;;;;;;;;;19.93;52.60;101934.19;5020945;28;4057;-64
2023/01/04 02:06:09;;;;;;;;;;;;;;;19.91;52.27;101931.19;5024528;28;4329;-64
2023/01/04 02:08:35;;;;;;;;;;;;;;;19.93;52.10;101907.56;5006472;28;5249;-64
2023/01/04 02:11:02;;;;;;;;;;;;;;;19.93;52.31;101905.44;5021294;28;4246;-63
2023/01/04 02:14:25;;;;;;;;;;;;;;;19.93;52.40;101888.19;5024223;28;4461;-64
2023/01/04 02:16:33;;;;;;;;;;;;;;;19.93;52.31;101873.06;5024815;28;4209;-65
2023/01/04 02:19:26;;;;;;;;;;;;;;;19.91;52.12;101858.56;5024021;28;5173;-64
2023/01/04 02:22:01;;;;;;;;;;;;;;;19.93;52.07;101858.69;5022262;28;5386;-64
2023/01/04 02:24:42;;;;;;;;;;;;;;;19.90;52.25;101854.19;5021748;28;4240;-64
2023/01/04 02:27:19;;;;;;;;;;;;;;;19.90;52.18;101843.44;5022676;28;4086;-65
2023/01/04 02:30:04;;;;;;;;;;;;;;;19.91;52.12;101833.44;4995465;28;4184;-64
2023/01/04 02:32:30;;;;;;;;;;;;;;;19.93;52.18;101822.09;5022255;28;5098;-64
2023/01/04 02:35:15;;;;;;;;;;;;;;;19.96;52.74;101825.84;5020931;28;4277;-63
2023/01/04 02:37:49;;;;;;;;;;;;;;;19.97;52.60;101825.19;5020782;28;4495;-64
2023/01/04 02:40:18;;;;;;;;;;;;;;;19.97;52.85;101825.19;4997989;28;5821;-64
2023/01/04 02:46:39;;;;;;;;;;;;;;;19.98;52.80;101826.72;5010821;28;4020;-64
2023/01/04 02:51:51;;;;;;;;;;;;;;;19.99;53.01;101824.59;5020905;28;4294;-64
2023/01/04 02:54:18;;;;;;;;;;;;;;;19.98;53.00;101820.97;5021156;28;4469;-64
2023/01/04 02:56:53;;;;;;;;;;;;;;;19.98;52.88;101815.22;5020784;28;4030;-64
2023/01/04 02:59:32;;;;;;;;;;;;;;;19.97;52.74;101801.44;4999163;28;4162;-63
2023/01/04 03:07:51;;;;;;;;;;;;;;;19.94;52.86;101783.31;5015671;28;4239;-64
2023/01/04 03:10:19;;;;;;;;;;;;;;;19.94;52.72;101771.09;5002752;28;4189;-63
2023/01/04 03:12:51;;;;;;;;;;;;;;;19.92;52.81;101773.81;5001799;28;4309;-64
2023/01/04 03:15:21;;;;;;;;;;;;;;;19.91;52.60;101773.09;4997320;28;3962;-64
2023/01/04 03:17:54;;;;;;;;;;;;;;;19.90;52.73;101770.81;5020471;28;4276;-63
2023/01/04 03:20:22;;;;;;;;;;;;;;;19.90;52.45;101767.94;5019296;28;5422;-64
2023/01/04 03:37:00;;;;;;;;;;;;;;;19.86;52.33;101734.72;5006922;28;4220;-64
2023/01/04 03:50:39;;;;;;;;;;;;;;;19.88;52.32;101700.34;5004263;28;4115;-64
2023/01/04 03:53:06;;;;;;;;;;;;;;;19.90;52.18;101696.81;4995339;28;4043;-64
2023/01/04 03:55:33;;;;;;;;;;;;;;;19.94;52.70;101702.84;4994621;28;4224;-64
2023/01/04 03:57:59;;;;;;;;;;;;;;;19.95;52.72;101707.22;4995999;28;4384;-64
2023/01/04 04:00:25;;;;;;;;;;;;;;;19.97;52.65;101687.19;5019707;28;5205;-64
2023/01/04 04:02:52;;;;;;;;;;;;;;;19.99;52.70;101689.47;4997602;28;4023;-63
2023/01/04 04:10:52;;;;;;;;;;;;;;;20.01;52.97;101667.31;5019643;28;4202;-64
2023/01/04 04:13:18;;;;;;;;;;;;;;;20.00;52.67;101654.34;5018403;28;4264;-64
2023/01/04 04:15:44;;;;;;;;;;;;;;;19.99;52.34;101640.59;5019662;28;4193;-64
2023/01/04 04:18:13;;;;;;;;;;;;;;;20.00;52.79;101639.97;5015872;28;4387;-64
2023/01/04 04:20:40;;;;;;;;;;;;;;;20.02;52.94;101636.44;5019332;28;4204;-64
2023/01/04 04:23:06;;;;;;;;;;;;;;;20.01;52.68;101629.22;5018651;28;5459;-64
2023/01/04 04:25:32;;;;;;;;;;;;;;;20.02;52.57;101622.84;5020309;28;4035;-64
2023/01/04 04:27:59;;;;;;;;;;;;;;;20.04;52.70;101617.22;5024642;28;4020;-63
2023/01/04 04:30:25;;;;;;;;;;;;;;;20.05;52.43;101618.69;5024942;28;4456;-64
2023/01/04 04:32:52;;;;;;;;;;;;;;;20.06;52.79;101610.81;5027430;28;4670;-63
2023/01/04 04:35:18;;;;;;;;;;;;;;;20.06;52.76;101602.94;5023220;28;4484;-64
2023/01/04 04:37:50;;;;;;;;;;;;;;;20.06;52.87;101593.56;5025448;28;4143;-64
2023/01/04 04:43:01;;;;;;;;;;;;;;;20.05;52.91;101584.19;5026464;28;4326;-64
2023/01/04 04:45:28;;;;;;;;;;;;;;;20.07;52.85;101575.69;5022430;28;4145;-64
2023/01/04 04:47:54;;;;;;;;;;;;;;;20.07;52.77;101561.31;5024317;28;4527;-63
2023/01/04 04:50:21;;;;;;;;;;;;;;;20.07;52.82;101552.69;5023382;28;4148;-63
2023/01/04 04:52:48;;;;;;;;;;;;;;;20.11;53.02;101551.44;5024827;28;4082;-64
2023/01/04 04:55:21;;;;;;;;;;;;;;;20.11;52.97;101545.69;5021772;28;4262;-64
2023/01/04 04:57:47;;;;;;;;;;;;;;;20.11;53.13;101537.06;5019823;28;4029;-64
2023/01/04 05:00:14;;;;;;;;;;;;;;;20.11;52.99;101545.69;5023654;28;4204;-64
2023/01/04 05:02:40;;;;;;;;;;;;;;;20.11;53.25;101534.19;5027570;28;4223;-64
2023/01/04 05:05:06;;;;;;;;;;;;;;;20.11;52.97;101539.94;5022462;28;4145;-64
2023/01/04 05:07:33;;;;;;;;;;;;;;;20.09;53.03;101532.69;5021316;28;4238;-64
2023/01/04 05:09:59;;;;;;;;;;;;;;;20.09;53.23;101526.94;5026510;28;5428;-64
2023/01/04 05:15:10;;;;;;;;;;;;;;;20.10;53.04;101516.19;5024217;28;5456;-64
2023/01/04 05:17:39;;;;;;;;;;;;;;;20.11;52.93;101511.91;5020525;28;4194;-64
2023/01/04 05:20:06;;;;;;;;;;;;;;;20.11;53.15;101505.41;5023571;28;4500;-64
2023/01/04 05:22:32;;;;;;;;;;;;;;;20.12;53.11;101498.31;5023193;28;4210;-64
2023/01/04 05:24:59;;;;;;;;;;;;;;;20.15;53.12;101494.16;5024359;28;4120;-65
2023/01/04 05:27:25;;;;;;;;;;;;;;;20.14;53.20;101481.19;5020624;28;4203;-64
2023/01/04 05:32:36;;;;;;;;;;;;;;;20.12;53.04;101455.19;5023788;28;4030;-64
2023/01/04 05:35:03;;;;;;;;;;;;;;;20.12;53.21;101449.44;5014004;28;5037;-64
2023/01/04 05:37:29;;;;;;;;;;;;;;;20.14;53.11;101446.66;5019415;28;4436;-64
2023/01/04 05:39:56;;;;;;;;;;;;;;;20.11;53.13;101436.41;5017430;28;4035;-64
2023/01/04 05:42:25;;;;;;;;;;;;;;;20.16;53.31;101443.88;5019763;28;5229;-62
2023/01/04 05:44:51;;;;;;;;;;;;;;;20.24;53.73;101427.09;5018262;28;4183;-63
2023/01/04 05:47:17;;;;;;;;;;;;;;;20.15;53.96;101425.16;5015363;28;4151;-63
2023/01/04 05:49:44;;;;;;;;;;;;;;;20.06;53.66;101424.69;5021091;28;5502;-63
2023/01/04 05:52:10;;;;;;;;;;;;;;;20.10;52.89;101418.41;5022960;28;4149;-63
2023/01/04 05:54:36;;;;;;;;;;;;;;;20.14;53.61;101417.91;5022015;28;4321;-63
2023/01/04 05:57:03;;;;;;;;;;;;;;;20.13;53.70;101414.28;5022625;28;4155;-63
2023/01/04 05:59:29;;;;;;;;;;;;;;;20.13;53.97;101404.91;5017979;28;5265;-63
2023/01/04 06:02:04;;;;;;;;;;;;;;;20.13;53.64;101404.91;5023371;28;4248;-63
2023/01/04 06:04:31;;;;;;;;;;;;;;;20.14;53.94;101394.91;5022832;28;4186;-63
2023/01/04 06:06:57;;;;;;;;;;;;;;;20.12;54.08;101383.28;5021167;28;5203;-63
2023/01/04 06:09:25;;;;;;;;;;;;;;;20.14;53.48;101389.16;5024013;28;5236;-64
2023/01/04 06:11:51;;;;;;;;;;;;;;;20.26;53.64;101381.94;5023353;28;4450;-65
2023/01/04 06:14:18;;;;;;;;;;;;;;;20.25;53.83;101377.59;5023834;28;4159;-64
2023/01/04 06:16:44;;;;;;;;;;;;;;;20.25;54.28;101371.84;5022270;28;4034;-64
2023/01/04 06:19:10;;;;;;;;;;;;;;;20.25;54.27;101360.34;5022323;28;4386;-63
2023/01/04 06:21:37;;;;;;;;;;;;;;;20.25;54.22;101359.59;5019488;28;4169;-64
2023/01/04 06:24:04;;;;;;;;;;;;;;;20.27;54.96;101351.03;5024075;28;3985;-64
2023/01/04 06:26:30;;;;;;;;;;;;;;;20.25;54.74;101348.09;5019502;28;4042;-62
2023/01/04 06:28:56;;;;;;;;;;;;;;;20.24;54.29;101346.56;5024166;28;4144;-62
2023/01/04 06:31:23;;;;;;;;;;;;;;;20.24;54.60;101341.56;5022163;28;5457;-62
2023/01/04 06:33:50;;;;;;;;;;;;;;;20.25;55.70;101342.34;5020940;28;4306;-62
2023/01/04 06:36:19;;;;;;;;;;;;;;;20.25;55.47;101330.84;5019405;28;4311;-62
2023/01/04 06:38:46;;;;;;;;;;;;;;;20.23;55.68;101327.84;5021145;28;4119;-62
2023/01/04 06:41:12;;;;;;;;;;;;;;;20.23;55.96;101322.84;5021315;28;5070;-61
2023/01/04 06:43:38;;;;;;;;;;;;;;;20.25;56.12;101322.22;5023564;28;5112;-62
2023/01/04 06:46:05;;;;;;;;;;;;;;;20.22;55.97;101304.06;5019346;28;5255;-63
2023/01/04 06:48:31;;;;;;;;;;;;;;;20.22;55.37;101312.69;5022042;28;4206;-67
2023/01/04 06:50:58;;;;;;;;;;;;;;;20.23;55.26;101316.34;5022190;28;4057;-65
2023/01/04 06:53:24;;;;;;;;;;;;;;;20.25;55.07;101307.81;5021477;28;4142;-63
2023/01/04 06:55:50;;;;;;;;;;;;;;;20.23;56.42;101296.94;5022088;28;4160;-63
2023/01/04 06:58:17;;;;;;;;;;;;;;;20.24;56.09;101295.56;5024027;28;4203;-63
2023/01/04 07:00:47;;;;;;;;;;;;;;;20.21;57.01;101279.59;5022819;28;6620;-63
2023/01/04 07:03:13;;;;;;;;;;;;;;;20.21;56.75;101278.84;5022010;28;4120;-63
2023/01/04 07:05:41;;;;;;;;;;;;;;;20.20;56.05;101275.22;5023222;28;5330;-63
2023/01/04 07:08:08;;;;;;;;;;;;;;;20.20;55.51;101280.97;5022486;28;4106;-63
2023/01/04 07:10:34;;;;;;;;;;;;;;;20.19;55.19;101270.09;5022931;28;4143;-63
2023/01/04 07:13:01;;;;;;;;;;;;;;;20.20;54.91;101265.84;5023796;28;4088;-63
2023/01/04 07:15:27;;;;;;;;;;;;;;;20.19;54.50;101259.34;5023000;28;4205;-62
2023/01/04 07:18:06;;;;;;;;;;;;;;;20.19;54.21;101264.34;5023098;28;5234;-63
2023/01/04 07:20:32;;;;;;;;;;;;;;;20.20;54.08;101260.09;5024110;28;4223;-63
2023/01/04 07:22:58;;;;;;;;;;;;;;;20.19;53.83;101247.09;5023347;28;4155;-62
2023/01/04 07:25:25;;;;;;;;;;;;;;;20.18;53.90;101242.72;5022606;28;4166;-63
2023/01/04 07:27:52;;;;;;;;;;;;;;;20.17;53.66;101232.63;5022754;28;4151;-62
2023/01/04 07:30:18;;;;;;;;;;;;;;;20.17;53.39;101235.50;5022359;28;4883;-62
2023/01/04 07:32:45;;;;;;;;;;;;;;;20.18;53.29;101231.22;5023366;28;5158;-62
2023/01/04 07:35:11;;;;;;;;;;;;;;;20.16;52.97;101220.38;5019364;28;5211;-63
2023/01/04 07:37:38;;;;;;;;;;;;;;;20.16;53.11;101225.34;5022981;28;4219;-62
2023/01/04 07:40:05;;;;;;;;;;;;;;;20.15;52.86;101218.13;5020535;28;4527;-62
2023/01/04 07:42:31;;;;;;;;;;;;;;;20.14;52.75;101205.16;5024478;28;4194;-63
2023/01/04 07:44:57;;;;;;;;;;;;;;;20.14;52.60;101187.91;5022255;28;5455;-61
2023/01/04 07:47:24;;;;;;;;;;;;;;;20.13;52.50;101186.38;5023194;28;4108;-62
2023/01/04 07:49:50;;;;;;;;;;;;;;;20.14;52.34;101182.16;5021365;28;5530;-63
2023/01/04 07:52:16;;;;;;;;;;;;;;;20.12;52.35;101173.41;5022827;28;4094;-63
2023/01/04 07:54:43;;;;;;;;;;;;;;;20.13;52.06;101174.88;5022318;28;4309;-62
2023/01/04 07:57:11;;;;;;;;;;;;;;;20.14;52.07;101165.63;5023552;28;5337;-63
2023/01/04 07:59:38;;;;;;;;;;;;;;;20.15;51.95;101160.63;5022167;28;4305;-63
2023/01/04 08:02:04;;;;;;;;;;;;;;;20.13;51.82;101151.88;5026666;28;4167;-63
2023/01/04 08:04:31;;;;;;;;;;;;;;;20.13;51.92;101151.88;5023406;28;4166;-64
2023/01/04 08:07:00;;;;;;;;;;;;;;;20.13;51.64;101151.88;5015917;28;5453;-63
2023/01/04 08:09:27;;;;;;;;;;;;;;;20.11;51.72;101131.66;5025861;28;5340;-63
2023/01/04 08:11:53;;;;;;;;;;;;;;;20.09;51.98;101118.69;5025537;28;4196;-64
2023/01/04 08:14:22;;;;;;;;;;;;;;;20.08;52.01;101125.06;5026250;28;4440;-63
2023/01/04 08:16:49;;;;;;;;;;;;;;;20.09;52.83;101118.69;5026812;28;4143;-63
2023/01/04 08:19:16;;;;;;;;;;;;;;;20.09;52.98;101120.81;5026351;28;4139;-63
2023/01/04 08:21:43;;;;;;;;;;;;;;;20.07;53.24;101137.97;5027695;28;4177;-62
2023/01/04 08:24:10;;;;;;;;;;;;;;;20.10;53.30;101125.16;5026887;28;4142;-63
2023/01/04 08:26:36;;;;;;;;;;;;;;;20.07;53.05;101124.31;5027300;28;4122;-62
2023/01/04 08:29:02;;;;;;;;;;;;;;;20.04;53.04;101111.25;5025314;28;4001;-63
2023/01/04 08:31:29;;;;;;;;;;;;;;;20.04;53.14;101098.97;5026833;28;4250;-63
2023/01/04 08:33:55;;;;;;;;;;;;;;;20.09;53.13;101117.94;5027007;28;4130;-63
2023/01/04 08:36:22;;;;;;;;;;;;;;;20.05;53.49;101104.09;5027768;28;5184;-63
2023/01/04 08:38:53;;;;;;;;;;;;;;;20.06;53.52;101102.69;5027284;28;5206;-62
2023/01/04 08:41:28;;;;;;;;;;;;;;;20.09;53.28;101106.44;5026822;28;4134;-62
2023/01/04 08:44:14;;;;;;;;;;;;;;;20.12;53.45;101099.41;5027801;28;4127;-62
2023/01/04 08:46:40;;;;;;;;;;;;;;;20.13;53.89;101105.88;5028652;28;4212;-63
2023/01/04 08:49:10;;;;;;;;;;;;;;;20.13;53.61;101100.88;5025954;28;5239;-62
2023/01/04 08:51:36;;;;;;;;;;;;;;;20.16;53.89;101111.13;5027626;28;4059;-63
2023/01/04 08:54:03;;;;;;;;;;;;;;;20.16;54.22;101111.13;5026784;28;4159;-63
2023/01/04 08:56:29;;;;;;;;;;;;;;;20.16;54.34;101110.34;5027281;28;4206;-62
2023/01/04 08:58:55;;;;;;;;;;;;;;;20.15;53.85;101108.88;5024918;28;4228;-62
2023/01/04 09:01:22;;;;;;;;;;;;;;;20.16;54.43;101104.59;5027222;28;4130;-62
2023/01/04 09:03:48;;;;;;;;;;;;;;;20.16;54.37;101110.34;5026225;28;5760;-63
2023/01/04 09:06:14;;;;;;;;;;;;;;;20.14;54.58;101107.38;5026894;28;5121;-62
2023/01/04 09:08:41;;;;;;;;;;;;;;;20.14;54.57;101090.13;5022776;28;3998;-63
2023/01/04 09:11:11;;;;;;;;;;;;;;;20.14;54.49;101090.13;5024340;28;4125;-63
2023/01/04 09:13:38;;;;;;;;;;;;;;;20.14;54.40;101084.38;5017344;28;5339;-67
2023/01/04 09:16:05;;;;;;;;;;;;;;;20.16;54.14;101078.72;5015444;28;5160;-63
2023/01/04 09:18:32;;;;;;;;;;;;;;;20.14;54.15;101072.88;5021947;28;4172;-61
2023/01/04 09:21:00;;;;;;;;;;;;;;;20.12;54.28;101076.41;5020996;28;4202;-62
2023/01/04 09:23:27;;;;;;;;;;;;;;;20.17;54.71;101060.09;5023914;28;4102;-61
2023/01/04 09:25:54;;;;;;;;;;;;;;;20.17;54.90;101060.09;5022547;28;4105;-62
2023/01/04 09:28:20;;;;;;;;;;;;;;;20.17;54.70;101054.34;5010271;28;4199;-62
2023/01/04 09:30:46;;;;;;;;;;;;;;;20.20;54.96;101064.56;5020248;28;6365;-61
2023/01/04 09:33:15;;;;;;;;;;;;;;;20.16;55.01;101035.59;5024496;28;4516;-62
2023/01/04 09:35:42;;;;;;;;;;;;;;;20.14;55.16;101038.38;5021272;28;4085;-61
2023/01/04 09:38:08;;;;;;;;;;;;;;;20.12;55.01;101035.41;5026145;28;4164;-61
2023/01/04 09:40:49;;;;;;;;;;;;;;;20.11;54.92;101034.66;5026047;28;4179;-61
2023/01/04 09:43:17;;;;;;;;;;;;;;;20.12;55.22;101032.53;5023180;28;4155;-61
2023/01/04 09:45:46;;;;;;;;;;;;;;;20.10;55.17;101024.53;5026697;28;4045;-61
2023/01/04 09:48:13;;;;;;;;;;;;;;;20.11;55.35;101016.66;5007668;28;4852;-61
2023/01/04 09:50:50;;;;;;;;;;;;;;;20.12;55.32;101009.53;5025842;28;4108;-61
2023/01/04 09:53:33;;;;;;;;;;;;;;;20.11;55.05;101005.16;5022906;28;4151;-61
2023/01/04 09:56:12;;;;;;;;;;;;;;;20.10;54.77;101007.28;5006121;28;5234;-61
2023/01/04 09:58:38;;;;;;;;;;;;;;;20.16;55.26;101001.09;4999493;28;3995;-62
2023/01/04 10:01:06;;;;;;;;;;;;;;;20.11;55.63;100988.66;5023065;28;5176;-61
2023/01/04 10:03:40;;;;;;;;;;;;;;;20.17;55.20;100996.84;5020879;28;6380;-62
2023/01/04 10:06:09;;;;;;;;;;;;;;;20.17;55.19;100991.84;5008191;28;4018;-61
2023/01/04 10:08:35;;;;;;;;;;;;;;;20.19;54.90;100988.31;5001030;28;5577;-60
2023/01/04 10:11:25;;;;;;;;;;;;;;;20.20;55.30;100981.16;5021099;28;4148;-62
2023/01/04 10:14:12;;;;;;;;;;;;;;;20.19;55.61;100966.06;5021579;28;7174;-62
2023/01/04 10:16:58;;;;;;;;;;;;;;;20.09;55.46;100960.56;5021619;28;4042;-61
2023/01/04 10:19:47;;;;;;;;;;;;;;;20.00;54.97;100946.44;5022197;28;4029;-61
2023/01/04 10:22:51;;;;;;;;;;;;;;;20.11;54.95;100947.66;5022971;28;5209;-62
2023/01/04 10:25:20;;;;;;;;;;;;;;;20.14;54.80;100940.63;5005874;28;5508;-61
2023/01/04 10:27:55;;;;;;;;;;;;;;;20.16;55.35;100929.22;5019940;28;4220;-61
2023/01/04 10:30:41;;;;;;;;;;;;;;;20.17;55.49;100933.59;5000688;28;4183;-62
2023/01/04 10:33:26;;;;;;;;;;;;;;;20.18;55.02;100929.31;5019437;28;5273;-63
2023/01/04 10:35:52;;;;;;;;;;;;;;;20.20;55.33;100923.66;5021404;28;4104;-61
2023/01/04 10:38:23;;;;;;;;;;;;;;;20.21;55.57;100928.03;5004407;28;4240;-60
2023/01/04 10:40:49;;;;;;;;;;;;;;;20.21;55.43;100910.78;4992798;28;4102;-61
2023/01/04 10:43:28;;;;;;;;;;;;;;;20.21;55.92;100910.78;5022009;28;5307;-62
2023/01/04 10:46:03;;;;;;;;;;;;;;;20.21;55.75;100899.28;5021037;28;4177;-62
2023/01/04 10:48:32;;;;;;;;;;;;;;;20.20;55.89;100897.78;5008652;28;4112;-61
2023/01/04 10:51:02;;;;;;;;;;;;;;;20.21;55.81;100894.28;4995962;28;4200;-62
2023/01/04 10:53:50;;;;;;;;;;;;;;;20.21;55.35;100890.66;5020292;28;4807;-62
2023/01/04 10:56:22;;;;;;;;;;;;;;;20.21;55.42;100876.28;5019840;28;4085;-61
2023/01/04 10:58:55;;;;;;;;;;;;;;;20.22;55.81;100875.63;5016015;28;4090;-62
2023/01/04 11:01:32;;;;;;;;;;;;;;;20.24;55.56;100869.22;5001563;28;4389;-62
2023/01/04 11:04:05;;;;;;;;;;;;;;;20.24;55.59;100860.59;4997030;28;4441;-62
2023/01/04 11:06:37;;;;;;;;;;;;;;;20.25;55.67;100854.22;5018947;28;4325;-62
2023/01/04 11:09:06;;;;;;;;;;;;;;;20.26;55.95;100854.97;5018480;28;6320;-62
2023/01/04 11:11:37;;;;;;;;;;;;;;;20.25;55.74;100850.59;5017590;28;4169;-61
2023/01/04 11:14:03;;;;;;;;;;;;;;;20.25;55.78;100853.47;5003406;28;4267;-62
2023/01/04 11:16:29;;;;;;;;;;;;;;;20.26;55.63;100847.06;5019749;28;4138;-61
2023/01/04 11:18:56;;;;;;;;;;;;;;;19.99;54.13;100845.06;5003935;28;4197;-64
2023/01/04 11:21:25;;;;;;;;;;;;;;;19.14;53.91;100830.84;5021474;28;4136;-64
2023/01/04 11:23:51;;;;;;;;;;;;;;;19.09;52.66;100840.66;5021170;28;4026;-64
2023/01/04 11:26:23;;;;;;;;;;;;;;;18.96;52.25;100839.25;5020946;28;4130;-65
2023/01/04 11:28:53;;;;;;;;;;;;;;;18.81;51.32;100834.19;5021520;28;4238;-64
2023/01/04 11:31:21;;;;;;;;;;;;;;;18.98;51.11;100830.03;5002781;28;5415;-64
2023/01/04 11:33:55;;;;;;;;;;;;;;;18.96;50.75;100824.19;5026452;28;4207;-64
2023/01/04 11:36:41;;;;;;;;;;;;;;;18.86;50.47;100815.78;5020419;28;4154;-63
2023/01/04 11:39:23;;;;;;;;;;;;;;;18.65;49.78;100813.97;5021551;28;5561;-63
2023/01/04 11:41:59;;;;;;;;;;;;;;;18.58;49.61;100812.16;5021291;28;4031;-63
2023/01/04 11:44:29;;;;;;;;;;;;;;;18.46;49.55;100797.16;5020306;28;4007;-62
2023/01/04 11:47:03;;;;;;;;;;;;;;;18.52;49.10;100788.91;5021975;28;4051;-62
2023/01/04 11:49:32;;;;;;;;;;;;;;;18.37;49.14;100773.81;5021115;28;4044;-62
2023/01/04 11:51:59;;;;;;;;;;;;;;;18.30;49.43;100783.47;5020957;28;4182;-62
2023/01/04 11:54:25;;;;;;;;;;;;;;;18.67;48.46;100784.63;5019904;28;5207;-62
2023/01/04 11:57:02;;;;;;;;;;;;;;;19.01;48.28;100771.34;5022639;28;5285;-62
2023/01/04 12:00:12;;;;;;;;;;;;;;;19.41;49.74;100774.75;5021855;28;4535;-62
2023/01/04 12:02:39;;;;;;;;;;;;;;;19.43;49.67;100764.13;4994702;28;4101;-62
2023/01/04 12:05:30;;;;;;;;;;;;;;;19.54;49.73;100765.34;5021773;28;4138;-60
2023/01/04 12:07:57;;;;;;;;;;;;;;;19.58;49.70;100764.78;5019552;28;4002;-60
2023/01/04 12:10:25;;;;;;;;;;;;;;;19.60;49.66;100759.88;4995360;28;5118;-62
2023/01/04 12:12:55;;;;;;;;;;;;;;;19.56;49.77;100753.97;5020672;28;4115;-60
2023/01/04 12:15:31;;;;;;;;;;;;;;;19.60;49.79;100754.13;5019909;28;4488;-60
2023/01/04 12:17:58;;;;;;;;;;;;;;;19.61;49.78;100749.16;5021715;28;4082;-61
2023/01/04 12:20:26;;;;;;;;;;;;;;;19.60;49.78;100736.91;5001840;28;5424;-61
2023/01/04 12:22:52;;;;;;;;;;;;;;;19.63;49.94;100741.38;4995365;28;4172;-62
2023/01/04 12:25:37;;;;;;;;;;;;;;;19.79;50.18;100732.81;5018961;28;5412;-64
2023/01/04 12:28:04;;;;;;;;;;;;;;;19.77;49.74;100735.59;5016688;28;5227;-62
2023/01/04 12:30:33;;;;;;;;;;;;;;;19.68;49.39;100739.44;5020625;28;6287;-63
2023/01/04 12:32:59;;;;;;;;;;;;;;;19.66;49.65;100725.72;5023768;28;4002;-63
2023/01/04 12:35:45;;;;;;;;;;;;;;;19.63;49.92;100729.88;4998859;28;4167;-62
2023/01/04 12:38:11;;;;;;;;;;;;;;;19.61;49.86;100723.31;5023614;28;4005;-62
2023/01/04 12:40:43;;;;;;;;;;;;;;;19.59;49.89;100723.22;5023408;28;4143;-62
2023/01/04 12:43:15;;;;;;;;;;;;;;;19.61;49.73;100715.44;5021247;28;4095;-63
2023/01/04 12:45:42;;;;;;;;;;;;;;;19.61;49.95;100703.19;5023862;28;4488;-62
2023/01/04 12:51:16;;;;;;;;;;;;;;;19.69;50.17;100705.72;5025761;28;3998;-61
2023/01/04 12:54:01;;;;;;;;;;;;;;;19.70;50.26;100702.22;5027550;28;4236;-61
2023/01/04 12:56:46;;;;;;;;;;;;;;;19.71;50.51;100697.22;4983458;28;5368;-62
2023/01/04 12:59:13;;;;;;;;;;;;;;;19.74;50.70;100698.78;5027097;28;5150;-63
2023/01/04 13:02:09;;;;;;;;;;;;;;;19.74;50.68;100695.91;5026418;28;4013;-62
2023/01/04 13:04:39;;;;;;;;;;;;;;;19.75;50.86;100692.38;5027786;28;4166;-62
2023/01/04 13:07:08;;;;;;;;;;;;;;;19.73;51.19;100685.81;5026923;28;4113;-62
2023/01/04 13:09:38;;;;;;;;;;;;;;;19.70;51.37;100684.22;5025952;28;4166;-62
2023/01/04 13:12:17;;;;;;;;;;;;;;;19.76;51.33;100667.28;5003328;28;4459;-61
2023/01/04 13:14:46;;;;;;;;;;;;;;;19.78;51.16;100667.38;4999695;28;4553;-62
2023/01/04 13:17:13;;;;;;;;;;;;;;;19.79;51.01;100654.47;5026682;28;4309;-62
2023/01/04 13:19:42;;;;;;;;;;;;;;;19.80;51.23;100655.97;5026709;28;4277;-62
2023/01/04 13:22:23;;;;;;;;;;;;;;;19.83;51.33;100666.88;5000823;28;4426;-62
2023/01/04 13:24:56;;;;;;;;;;;;;;;19.84;51.26;100644.66;5001764;28;5698;-62
2023/01/04 13:27:25;;;;;;;;;;;;;;;19.84;51.65;100645.41;5024859;28;4097;-62
2023/01/04 13:29:51;;;;;;;;;;;;;;;19.87;51.83;100655.59;5027212;28;4291;-62
2023/01/04 13:32:18;;;;;;;;;;;;;;;19.87;51.72;100643.34;5027061;28;4017;-62
2023/01/04 13:34:51;;;;;;;;;;;;;;;19.83;51.87;100631.66;5026204;28;4880;-62
2023/01/04 13:37:23;;;;;;;;;;;;;;;19.81;51.85;100640.19;5000284;28;5194;-62
2023/01/04 13:39:50;;;;;;;;;;;;;;;19.83;51.64;100654.66;5002205;28;5495;-62
2023/01/04 13:42:16;;;;;;;;;;;;;;;19.82;51.73;100630.19;5023186;28;4343;-62
2023/01/04 13:44:53;;;;;;;;;;;;;;;19.83;52.31;100631.66;5026104;28;4209;-62
2023/01/04 13:47:40;;;;;;;;;;;;;;;19.85;52.35;100631.75;5024914;28;4088;-62
2023/01/04 13:50:12;;;;;;;;;;;;;;;19.86;52.20;100630.38;5021651;28;4989;-64
2023/01/04 13:52:40;;;;;;;;;;;;;;;19.90;52.14;100624.06;5000116;28;4189;-62
2023/01/04 13:55:30;;;;;;;;;;;;;;;19.91;52.57;100614.81;5006185;28;5369;-62